Time;durP1;ratioP1;P1;durP2;ratioP2;P2;SDS_P1;SDS_P2;PMS_P1;PMS_P2;Temp;Humidity;BMP_temperature;BMP_pressure;BME280_temperature;BME280_humidity;BME280_pressure;Samples;Min_cycle;Max_cycle;Signal;HPM_P1;HPM_P2
2023/03/25 00:01:00;;;;;;;2.58;1.10;;;22.20;65.40;;;;;;5052365;28;20523;-75
2023/03/25 00:03:27;;;;;;;6.10;1.35;;;22.20;65.50;;;;;;5070455;28;20049;-75
2023/03/25 00:05:53;;;;;;;4.32;1.30;;;22.20;65.60;;;;;;5053680;28;20033;-75
2023/03/25 00:08:19;;;;;;;3.13;1.27;;;22.20;65.70;;;;;;5053465;28;20013;-75
2023/03/25 00:10:45;;;;;;;2.08;1.20;;;22.10;65.80;;;;;;5054965;28;20047;-75
2023/03/25 00:13:12;;;;;;;2.92;1.10;;;22.10;65.80;;;;;;5054753;28;20028;-75
2023/03/25 00:15:47;;;;;;;4.25;1.08;;;22.00;65.90;;;;;;5053512;28;20112;-75
2023/03/25 00:18:13;;;;;;;4.63;1.30;;;22.00;66.00;;;;;;5053325;28;20025;-75
2023/03/25 00:20:39;;;;;;;4.13;1.27;;;21.90;66.00;;;;;;5053314;28;20039;-75
2023/03/25 00:23:08;;;;;;;2.28;1.00;;;21.90;66.20;;;;;;5052156;28;20025;-75
2023/03/25 00:25:34;;;;;;;2.72;1.20;;;21.90;66.20;;;;;;5052815;28;20025;-75
2023/03/25 00:27:59;;;;;;;2.90;1.30;;;21.80;66.30;;;;;;5053326;28;20031;-75
2023/03/25 00:30:25;;;;;;;3.42;1.23;;;21.80;66.40;;;;;;5053228;28;20064;-75
2023/03/25 00:32:51;;;;;;;4.35;1.23;;;21.80;66.50;;;;;;5053325;28;20025;-75
2023/03/25 00:35:20;;;;;;;3.53;1.30;;;21.70;66.50;;;;;;5052849;28;20029;-75
2023/03/25 00:37:47;;;;;;;4.03;1.38;;;21.70;66.60;;;;;;5052796;28;20477;-75
2023/03/25 00:40:13;;;;;;;4.03;1.30;;;21.70;66.60;;;;;;5053001;28;20389;-75
2023/03/25 00:42:48;;;;;;;5.85;1.70;;;21.60;66.70;;;;;;5052895;28;20025;-75
2023/03/25 00:45:15;;;;;;;5.13;1.40;;;21.60;66.80;;;;;;5053059;28;20021;-75
2023/03/25 00:47:41;;;;;;;4.43;1.45;;;21.50;66.80;;;;;;5053885;28;20484;-75
2023/03/25 00:50:07;;;;;;;5.18;1.40;;;21.50;66.90;;;;;;5036276;28;20036;-75
2023/03/25 00:52:32;;;;;;;5.15;1.30;;;21.50;67.00;;;;;;5053460;28;20503;-75
2023/03/25 00:54:58;;;;;;;2.58;1.30;;;21.40;67.00;;;;;;5052703;28;20497;-75
2023/03/25 00:57:23;;;;;;;7.43;1.67;;;21.40;67.10;;;;;;5052593;28;20080;-75
2023/03/25 00:59:49;;;;;;;2.88;1.40;;;21.30;67.20;;;;;;5052555;28;20031;-75
2023/03/25 01:02:17;;;;;;;4.85;1.50;;;21.30;67.30;;;;;;5053847;28;20025;-75
2023/03/25 01:04:44;;;;;;;4.15;1.65;;;21.30;67.50;;;;;;5052763;28;20029;-75
2023/03/25 01:07:11;;;;;;;2.70;1.35;;;21.20;67.40;;;;;;5036076;28;20017;-74
2023/03/25 01:09:40;;;;;;;2.95;1.02;;;21.20;67.50;;;;;;5052648;28;20025;-74
2023/03/25 01:12:06;;;;;;;2.85;1.33;;;21.20;67.70;;;;;;5053698;28;20036;-74
2023/03/25 01:14:31;;;;;;;2.70;1.10;;;21.10;67.70;;;;;;5035709;28;20033;-74
2023/03/25 01:16:57;;;;;;;2.20;1.17;;;21.10;67.80;;;;;;5052492;28;20377;-74
2023/03/25 01:19:23;;;;;;;2.35;1.05;;;21.10;68.00;;;;;;5052209;28;20021;-74
2023/03/25 01:21:49;;;;;;;2.60;1.30;;;21.00;68.00;;;;;;5052121;28;20370;-74
2023/03/25 01:24:15;;;;;;;4.03;1.30;;;21.00;68.00;;;;;;5052267;28;20032;-75
2023/03/25 01:26:42;;;;;;;3.85;1.50;;;21.00;68.00;;;;;;5052284;28;20025;-75
2023/03/25 01:29:09;;;;;;;2.63;1.13;;;20.90;68.00;;;;;;5052086;28;20046;-75
2023/03/25 01:31:34;;;;;;;2.90;1.50;;;20.90;68.00;;;;;;5052145;28;20024;-75
2023/03/25 01:34:00;;;;;;;3.17;1.10;;;20.90;68.10;;;;;;5051905;28;20029;-75
2023/03/25 01:36:28;;;;;;;2.75;1.17;;;20.90;68.20;;;;;;5051692;28;20028;-74
2023/03/25 01:38:54;;;;;;;2.08;1.20;;;20.80;68.20;;;;;;5052038;28;20024;-74
2023/03/25 01:41:20;;;;;;;2.97;1.40;;;20.80;68.20;;;;;;5051885;28;20021;-74
2023/03/25 01:44:09;;;;;;;3.22;1.40;;;20.80;68.20;;;;;;5051866;28;20048;-74
2023/03/25 01:46:36;;;;;;;4.55;1.30;;;20.70;68.10;;;;;;5052039;28;20071;-74
2023/03/25 01:49:03;;;;;;;3.53;1.25;;;20.70;68.20;;;;;;5051723;28;20032;-75
2023/03/25 01:51:31;;;;;;;4.20;1.55;;;20.60;68.20;;;;;;5068238;28;20068;-75
2023/03/25 01:53:57;;;;;;;3.13;1.45;;;20.60;68.20;;;;;;5068849;28;20435;-75
2023/03/25 01:56:29;;;;;;;5.50;1.42;;;20.60;68.10;;;;;;5068185;28;20025;-74
2023/03/25 01:58:56;;;;;;;4.65;1.45;;;20.60;68.40;;;;;;5068932;28;20039;-74
2023/03/25 02:01:21;;;;;;;2.63;1.25;;;20.50;68.30;;;;;;5051553;28;20100;-74
2023/03/25 02:03:51;;;;;;;3.80;1.42;;;20.50;68.40;;;;;;5052968;28;20174;-74
2023/03/25 02:06:27;;;;;;;3.00;1.25;;;20.50;68.50;;;;;;5051512;28;20028;-74
2023/03/25 02:08:54;;;;;;;4.47;1.30;;;20.50;68.60;;;;;;5051759;28;20112;-74
2023/03/25 02:11:20;;;;;;;3.35;1.17;;;20.40;68.60;;;;;;5051475;28;20025;-74
2023/03/25 02:13:45;;;;;;;4.35;1.50;;;20.40;68.70;;;;;;5051377;28;20021;-74
2023/03/25 02:16:17;;;;;;;3.97;1.17;;;20.40;68.90;;;;;;5051597;28;20436;-74
2023/03/25 02:19:00;;;;;;;3.53;1.30;;;20.30;68.80;;;;;;5052560;28;20024;-74
2023/03/25 02:21:32;;;;;;;3.10;1.38;;;20.30;68.90;;;;;;5051438;28;20040;-74
2023/03/25 02:24:28;;;;;;;5.45;1.77;;;20.30;69.00;;;;;;5052752;28;20017;-74
2023/03/25 02:27:14;;;;;;;4.25;1.35;;;20.20;68.90;;;;;;5052735;28;20020;-74
2023/03/25 02:30:05;;;;;;;3.58;1.10;;;20.20;69.10;;;;;;5051630;28;20028;-74
2023/03/25 02:32:37;;;;;;;5.28;1.48;;;20.20;69.10;;;;;;5052712;28;20028;-74
2023/03/25 02:35:39;;;;;;;4.93;1.40;;;20.20;69.10;;;;;;5052250;28;20025;-75
2023/03/25 02:38:08;;;;;;;3.13;1.52;;;20.10;69.30;;;;;;5051538;28;20060;-75
2023/03/25 02:40:48;;;;;;;4.45;1.33;;;20.10;69.50;;;;;;5052440;28;20108;-75
2023/03/25 02:43:38;;;;;;;6.38;1.80;;;20.10;69.70;;;;;;5051206;28;20020;-75
2023/03/25 02:46:07;;;;;;;3.05;1.20;;;20.10;69.50;;;;;;5049959;28;20037;-75
2023/03/25 02:48:43;;;;;;;2.60;1.27;;;20.10;69.60;;;;;;5036801;28;20040;-75
2023/03/25 02:51:12;;;;;;;5.70;1.45;;;20.10;69.70;;;;;;5054162;28;20493;-75
2023/03/25 02:53:38;;;;;;;4.22;1.23;;;20.00;69.70;;;;;;5037534;28;20628;-75
2023/03/25 02:56:09;;;;;;;5.10;1.83;;;20.00;69.70;;;;;;5037437;28;20037;-75
2023/03/25 02:58:37;;;;;;;4.83;1.80;;;20.00;69.90;;;;;;5037578;28;20092;-75
2023/03/25 03:01:02;;;;;;;5.03;1.63;;;20.00;69.80;;;;;;5037807;28;20287;-75
2023/03/25 03:03:28;;;;;;;4.30;1.55;;;20.00;69.80;;;;;;5037188;28;20511;-75
2023/03/25 03:06:01;;;;;;;4.28;1.20;;;19.90;69.80;;;;;;5054133;28;20110;-75
2023/03/25 03:08:30;;;;;;;3.33;1.23;;;19.90;69.80;;;;;;5037198;28;20055;-75
2023/03/25 03:11:16;;;;;;;6.55;1.20;;;19.90;69.80;;;;;;5054110;28;20032;-75
2023/03/25 03:14:16;;;;;;;4.57;1.42;;;19.90;69.70;;;;;;5017038;28;20030;-75
2023/03/25 03:16:50;;;;;;;4.72;1.58;;;19.90;69.60;;;;;;5033853;28;20168;-75
2023/03/25 03:19:37;;;;;;;4.65;1.70;;;19.80;69.70;;;;;;5033728;28;20029;-76
2023/03/25 03:22:14;;;;;;;5.80;1.58;;;19.80;69.70;;;;;;5017755;28;20083;-76
2023/03/25 03:25:09;;;;;;;7.63;1.92;;;19.80;69.70;;;;;;5067758;28;20027;-75
2023/03/25 03:27:55;;;;;;;4.75;1.50;;;19.80;69.80;;;;;;5038066;28;20107;-75
2023/03/25 03:30:26;;;;;;;4.13;1.52;;;19.70;69.80;;;;;;5050856;28;20163;-75
2023/03/25 03:33:03;;;;;;;3.15;1.60;;;19.80;69.90;;;;;;5051039;28;20112;-75
2023/03/25 03:35:57;;;;;;;4.93;1.40;;;19.70;69.90;;;;;;5034350;28;20026;-75
2023/03/25 03:38:33;;;;;;;4.53;1.73;;;19.70;70.00;;;;;;5041639;28;20033;-75
2023/03/25 03:41:01;;;;;;;3.80;1.42;;;19.70;70.00;;;;;;5067390;28;20068;-75
2023/03/25 03:43:55;;;;;;;5.30;1.70;;;19.70;70.10;;;;;;5067502;28;20025;-75
2023/03/25 03:46:29;;;;;;;4.25;1.50;;;19.60;70.10;;;;;;5046924;28;20120;-75
2023/03/25 03:48:56;;;;;;;5.18;1.73;;;19.60;70.10;;;;;;5071724;28;20021;-75
2023/03/25 03:51:28;;;;;;;3.47;1.27;;;19.60;70.20;;;;;;5053765;28;20048;-75
2023/03/25 03:53:57;;;;;;;5.00;1.37;;;19.60;70.30;;;;;;5053922;28;20029;-75
2023/03/25 03:56:35;;;;;;;4.30;1.40;;;19.60;70.30;;;;;;5053792;28;20021;-75
2023/03/25 03:59:02;;;;;;;6.65;1.38;;;19.50;70.20;;;;;;5052560;28;20029;-75
2023/03/25 04:01:52;;;;;;;4.68;1.58;;;19.50;70.40;;;;;;5036827;28;20050;-75
2023/03/25 04:04:20;;;;;;;5.72;1.70;;;19.50;70.40;;;;;;5050218;28;20044;-76
2023/03/25 04:06:55;;;;;;;4.00;1.60;;;19.50;70.50;;;;;;5053761;28;20025;-75
2023/03/25 04:09:39;;;;;;;5.43;1.52;;;19.50;70.50;;;;;;5053725;28;20017;-75
2023/03/25 04:12:08;;;;;;;3.63;1.33;;;19.50;70.50;;;;;;5054953;28;20094;-75
2023/03/25 04:14:37;;;;;;;4.13;1.70;;;19.50;70.60;;;;;;5053112;28;20025;-75
2023/03/25 04:17:04;;;;;;;3.83;1.25;;;19.40;70.50;;;;;;5053763;28;20100;-75
2023/03/25 04:19:32;;;;;;;2.80;1.15;;;19.40;70.50;;;;;;5053621;28;20025;-75
2023/03/25 04:21:58;;;;;;;3.25;1.40;;;19.40;70.60;;;;;;5053396;28;20126;-75
2023/03/25 04:24:25;;;;;;;4.07;1.30;;;19.40;70.60;;;;;;5053260;28;20401;-75
2023/03/25 04:26:51;;;;;;;4.88;1.60;;;19.40;70.60;;;;;;5054601;28;20492;-75
2023/03/25 04:29:17;;;;;;;3.92;1.60;;;19.30;70.60;;;;;;5053340;28;20115;-75
2023/03/25 04:31:49;;;;;;;3.25;1.20;;;19.30;70.60;;;;;;5053189;28;20559;-75
2023/03/25 04:34:14;;;;;;;3.35;1.00;;;19.30;70.70;;;;;;5054562;28;20071;-75
2023/03/25 04:36:42;;;;;;;3.47;1.20;;;19.30;70.70;;;;;;5053414;28;20033;-75
2023/03/25 04:39:12;;;;;;;4.18;1.95;;;19.30;70.80;;;;;;5036761;28;20021;-75
2023/03/25 04:41:38;;;;;;;3.55;1.40;;;19.30;70.80;;;;;;5054402;28;20028;-75
2023/03/25 04:44:06;;;;;;;5.40;1.40;;;19.20;70.80;;;;;;5052823;28;20021;-75
2023/03/25 04:46:32;;;;;;;5.07;1.25;;;19.20;70.80;;;;;;5052960;28;20021;-74
2023/03/25 04:48:59;;;;;;;3.38;1.58;;;19.20;70.90;;;;;;5052965;28;20032;-74
2023/03/25 04:51:25;;;;;;;3.17;1.38;;;19.20;70.90;;;;;;5054085;28;20041;-74
2023/03/25 04:53:51;;;;;;;5.15;1.50;;;19.20;71.00;;;;;;5069338;28;20048;-75
2023/03/25 04:56:17;;;;;;;4.40;1.73;;;19.20;71.00;;;;;;5054056;28;20064;-75
2023/03/25 04:58:43;;;;;;;5.20;1.40;;;19.20;71.00;;;;;;5068981;28;20028;-75
2023/03/25 05:01:18;;;;;;;4.05;1.45;;;19.20;71.00;;;;;;5054184;28;20033;-75
2023/03/25 05:03:44;;;;;;;7.03;1.73;;;19.10;71.00;;;;;;5068635;28;20013;-75
2023/03/25 05:06:10;;;;;;;5.18;1.58;;;19.10;71.10;;;;;;5054197;28;20032;-75
2023/03/25 05:08:36;;;;;;;4.55;1.20;;;19.10;71.20;;;;;;5053693;28;20021;-75
2023/03/25 05:11:02;;;;;;;4.82;1.45;;;19.10;71.20;;;;;;5085680;28;20603;-74
2023/03/25 05:13:27;;;;;;;4.38;1.70;;;19.10;71.20;;;;;;5049429;28;20100;-75
2023/03/25 05:15:53;;;;;;;3.25;1.23;;;19.10;71.20;;;;;;5065572;28;20132;-74
2023/03/25 05:18:19;;;;;;;6.22;2.13;;;19.00;71.20;;;;;;5065832;28;20022;-75
2023/03/25 05:20:45;;;;;;;3.95;1.23;;;19.00;71.20;;;;;;5065522;28;20066;-75
2023/03/25 05:23:15;;;;;;;2.80;1.00;;;19.10;71.30;;;;;;5049014;28;20503;-75
2023/03/25 05:25:41;;;;;;;5.03;2.00;;;19.00;71.40;;;;;;5064641;28;20029;-75
2023/03/25 05:28:08;;;;;;;4.38;1.50;;;19.00;71.30;;;;;;5065543;28;20029;-75
2023/03/25 05:30:40;;;;;;;6.75;1.63;;;19.00;71.30;;;;;;5048516;28;20584;-75
2023/03/25 05:33:09;;;;;;;4.15;1.23;;;19.00;71.40;;;;;;5064502;28;20470;-75
2023/03/25 05:35:38;;;;;;;4.57;1.13;;;19.00;71.40;;;;;;5048651;28;20033;-75
2023/03/25 05:38:04;;;;;;;4.43;1.27;;;19.00;71.40;;;;;;5065414;28;20088;-75
2023/03/25 05:40:30;;;;;;;3.40;1.38;;;19.00;71.40;;;;;;5065511;28;20417;-75
2023/03/25 05:42:56;;;;;;;3.78;1.55;;;19.00;71.40;;;;;;5048413;28;20116;-75
2023/03/25 05:45:22;;;;;;;3.80;1.40;;;18.90;71.40;;;;;;5033076;28;20119;-75
2023/03/25 05:47:47;;;;;;;4.88;2.10;;;18.90;71.40;;;;;;5067107;28;20053;-75
2023/03/25 05:50:14;;;;;;;4.22;1.58;;;18.90;71.50;;;;;;5052598;28;20021;-75
2023/03/25 05:52:43;;;;;;;3.17;1.35;;;18.90;71.60;;;;;;5084345;28;20056;-75
2023/03/25 05:55:11;;;;;;;5.07;1.45;;;18.90;71.60;;;;;;5067624;28;20079;-75
2023/03/25 05:57:36;;;;;;;2.92;0.98;;;18.90;71.70;;;;;;5067536;28;20013;-75
2023/03/25 06:00:07;;;;;;;3.25;1.10;;;18.80;71.70;;;;;;5052414;28;20410;-75
2023/03/25 06:02:37;;;;;;;4.00;1.30;;;18.90;71.70;;;;;;5066818;28;20017;-75
2023/03/25 06:05:08;;;;;;;3.42;1.23;;;18.90;71.70;;;;;;5083805;28;20059;-75
2023/03/25 06:07:36;;;;;;;3.05;1.40;;;18.80;71.70;;;;;;5083117;28;20449;-75
2023/03/25 06:10:03;;;;;;;4.40;1.52;;;18.80;71.70;;;;;;5084103;28;20025;-75
2023/03/25 06:12:31;;;;;;;4.53;1.60;;;18.80;71.70;;;;;;5067346;28;20040;-75
2023/03/25 06:14:57;;;;;;;7.10;1.80;;;18.80;71.70;;;;;;5035782;28;20490;-75
2023/03/25 06:17:23;;;;;;;5.40;1.58;;;18.80;71.80;;;;;;5047728;28;20079;-75
2023/03/25 06:19:49;;;;;;;4.88;1.52;;;18.80;71.80;;;;;;5064116;28;20493;-75
2023/03/25 06:22:15;;;;;;;5.20;1.50;;;18.80;71.80;;;;;;5031454;28;20029;-75
2023/03/25 06:24:41;;;;;;;3.03;1.23;;;18.80;71.80;;;;;;5047416;28;20033;-75
2023/03/25 06:27:11;;;;;;;4.85;1.35;;;18.70;71.80;;;;;;5030610;28;20532;-75
2023/03/25 06:29:36;;;;;;;3.80;1.23;;;18.70;71.80;;;;;;5046996;28;20018;-75
2023/03/25 06:32:05;;;;;;;3.47;1.20;;;18.70;71.80;;;;;;5032044;28;20022;-75
2023/03/25 06:34:34;;;;;;;4.05;1.77;;;18.70;71.90;;;;;;5047400;28;20481;-75
2023/03/25 06:37:00;;;;;;;3.53;1.10;;;18.70;71.90;;;;;;5046975;28;20071;-75
2023/03/25 06:39:32;;;;;;;5.93;1.20;;;18.70;71.80;;;;;;5047459;28;20029;-75
2023/03/25 06:41:59;;;;;;;4.13;1.70;;;18.70;72.00;;;;;;5062380;28;20113;-75
2023/03/25 06:44:24;;;;;;;5.63;1.05;;;18.70;71.90;;;;;;5030468;28;20035;-75
2023/03/25 06:46:50;;;;;;;4.38;1.50;;;18.70;72.00;;;;;;5063974;28;20026;-74
2023/03/25 06:49:16;;;;;;;9.38;1.65;;;18.70;72.00;;;;;;5046677;28;20025;-73
2023/03/25 06:51:41;;;;;;;4.72;1.38;;;18.70;71.70;;;;;;5050200;28;20064;-72
2023/03/25 06:54:07;;;;;;;4.57;1.60;;;18.70;71.30;;;;;;5083883;28;20021;-73
2023/03/25 06:56:33;;;;;;;3.08;1.27;;;18.60;71.20;;;;;;5084424;28;20104;-73
2023/03/25 06:58:58;;;;;;;3.92;1.55;;;18.60;71.00;;;;;;5067284;28;20079;-74
2023/03/25 07:01:24;;;;;;;6.15;1.88;;;18.60;70.90;;;;;;5067250;28;20024;-74
2023/03/25 07:03:50;;;;;;;6.18;1.90;;;18.60;70.80;;;;;;5083991;28;20017;-74
2023/03/25 07:06:17;;;;;;;6.40;1.65;;;18.60;70.80;;;;;;5051637;28;20029;-74
2023/03/25 07:08:42;;;;;;;4.47;1.50;;;18.60;70.70;;;;;;5051721;28;20021;-74
2023/03/25 07:11:09;;;;;;;5.90;1.40;;;18.60;70.70;;;;;;5067670;28;20487;-74
2023/03/25 07:13:34;;;;;;;3.55;1.35;;;18.50;70.50;;;;;;5062654;28;20492;-74
2023/03/25 07:16:00;;;;;;;6.00;1.40;;;18.50;70.50;;;;;;5031893;28;20075;-74
2023/03/25 07:18:26;;;;;;;3.38;1.40;;;18.50;70.50;;;;;;5064296;28;20041;-74
2023/03/25 07:20:52;;;;;;;2.78;1.55;;;18.50;70.50;;;;;;5064200;28;20026;-74
2023/03/25 07:23:17;;;;;;;14.18;2.00;;;18.50;70.60;;;;;;5064022;28;20510;-72
2023/03/25 07:25:43;;;;;;;13.07;2.30;;;18.50;70.70;;;;;;5063832;28;20030;-71
2023/03/25 07:28:09;;;;;;;12.50;2.63;;;18.50;71.40;;;;;;5064008;28;20030;-70
2023/03/25 07:30:34;;;;;;;12.63;2.28;;;18.50;72.10;;;;;;5047324;28;20061;-71
2023/03/25 07:33:00;;;;;;;10.60;2.42;;;18.50;72.20;;;;;;5047899;28;20021;-72
2023/03/25 07:35:26;;;;;;;7.82;2.15;;;18.50;72.20;;;;;;5067608;28;20120;-72
2023/03/25 07:37:51;;;;;;;9.82;2.75;;;18.50;72.10;;;;;;5033440;28;20103;-72
2023/03/25 07:40:17;;;;;;;8.35;1.95;;;18.50;73.00;;;;;;5065335;28;20105;-72
2023/03/25 07:42:43;;;;;;;7.97;2.08;;;18.50;71.90;;;;;;5031835;28;20100;-72
2023/03/25 07:45:09;;;;;;;6.15;1.70;;;18.50;71.90;;;;;;5032105;28;20030;-72
2023/03/25 07:47:35;;;;;;;5.35;1.70;;;18.40;71.70;;;;;;5048295;28;20026;-72
2023/03/25 07:50:01;;;;;;;5.80;1.85;;;18.40;71.70;;;;;;5050867;28;20029;-72
2023/03/25 07:52:27;;;;;;;5.68;1.88;;;18.40;71.60;;;;;;5051128;28;20509;-72
2023/03/25 07:54:52;;;;;;;4.55;1.65;;;18.40;71.60;;;;;;5052455;28;20036;-72
2023/03/25 07:57:18;;;;;;;6.82;2.25;;;18.40;71.60;;;;;;5053540;28;20139;-72
2023/03/25 07:59:44;;;;;;;7.18;1.92;;;18.40;71.60;;;;;;5036786;28;20471;-72
2023/03/25 08:02:11;;;;;;;6.93;2.10;;;18.40;71.50;;;;;;5053221;28;20021;-72
2023/03/25 08:04:37;;;;;;;6.85;2.10;;;18.40;71.50;;;;;;5053409;28;20055;-72
2023/03/25 08:07:03;;;;;;;7.03;2.03;;;18.30;71.50;;;;;;5054029;28;20392;-72
2023/03/25 08:09:28;;;;;;;6.25;1.90;;;18.30;71.50;;;;;;5036574;28;20473;-72
2023/03/25 08:11:54;;;;;;;6.30;1.85;;;18.30;71.40;;;;;;5052993;28;20111;-72
2023/03/25 08:14:20;;;;;;;4.15;1.88;;;18.30;71.40;;;;;;5042043;28;20100;-72
2023/03/25 08:16:45;;;;;;;6.03;2.22;;;18.30;71.40;;;;;;5033000;28;20486;-72
2023/03/25 08:19:11;;;;;;;7.25;2.15;;;18.30;71.40;;;;;;5066281;28;20017;-72
2023/03/25 08:21:37;;;;;;;4.60;1.50;;;18.20;71.30;;;;;;5049440;28;20026;-72
2023/03/25 08:24:03;;;;;;;6.10;2.13;;;18.30;71.40;;;;;;5066239;28;20021;-72
2023/03/25 08:26:32;;;;;;;9.48;2.45;;;18.20;71.30;;;;;;5049537;28;20018;-72
2023/03/25 08:28:58;;;;;;;6.78;1.90;;;18.20;71.30;;;;;;5048867;28;20533;-72
2023/03/25 08:31:24;;;;;;;5.70;1.80;;;18.20;71.20;;;;;;5066236;28;20164;-72
2023/03/25 08:33:50;;;;;;;4.35;1.70;;;18.20;71.30;;;;;;5049303;28;20017;-72
2023/03/25 08:36:18;;;;;;;5.72;1.98;;;18.20;71.30;;;;;;5065902;28;20048;-72
2023/03/25 08:38:45;;;;;;;7.03;1.95;;;18.20;71.20;;;;;;5065176;28;20022;-72
2023/03/25 08:41:10;;;;;;;4.63;1.67;;;18.20;71.20;;;;;;5065957;28;20458;-72
2023/03/25 08:43:36;;;;;;;4.55;1.98;;;18.10;71.10;;;;;;5065761;28;20017;-72
2023/03/25 08:46:01;;;;;;;4.18;1.70;;;18.10;71.10;;;;;;5065125;28;20037;-72
2023/03/25 08:48:27;;;;;;;5.05;1.60;;;18.10;72.20;;;;;;5041861;28;20551;-72
2023/03/25 08:50:53;;;;;;;4.60;1.55;;;18.10;71.10;;;;;;5052248;28;20068;-72
2023/03/25 08:53:18;;;;;;;6.82;2.22;;;18.10;71.00;;;;;;5052249;28;20065;-72
2023/03/25 08:55:44;;;;;;;3.10;1.40;;;18.10;71.10;;;;;;5052482;28;20048;-72
2023/03/25 08:58:10;;;;;;;4.45;1.50;;;18.10;71.00;;;;;;5053576;28;20018;-72
2023/03/25 09:00:36;;;;;;;5.40;1.70;;;18.00;71.00;;;;;;5052300;28;20409;-72
2023/03/25 09:03:03;;;;;;;4.95;1.85;;;18.10;71.10;;;;;;5052295;28;20021;-72
2023/03/25 09:05:29;;;;;;;7.53;2.17;;;18.10;71.10;;;;;;5052158;28;20033;-72
2023/03/25 09:07:54;;;;;;;7.43;1.90;;;18.10;71.10;;;;;;5035523;28;20032;-72
2023/03/25 09:10:20;;;;;;;6.10;2.30;;;18.10;71.00;;;;;;5035431;28;20124;-72
2023/03/25 09:12:46;;;;;;;4.97;1.40;;;18.00;71.00;;;;;;5052000;28;20035;-72
2023/03/25 09:15:11;;;;;;;5.93;2.10;;;18.00;70.90;;;;;;5033671;28;20055;-72
2023/03/25 09:17:38;;;;;;;5.80;1.88;;;18.00;70.90;;;;;;5065295;28;20516;-72
2023/03/25 09:20:07;;;;;;;6.07;2.28;;;18.00;70.90;;;;;;5064901;28;20022;-72
2023/03/25 09:22:33;;;;;;;6.43;1.83;;;18.00;71.00;;;;;;5064551;28;20057;-72
2023/03/25 09:24:59;;;;;;;7.90;1.95;;;18.00;70.90;;;;;;5032906;28;20052;-72
2023/03/25 09:27:25;;;;;;;5.28;1.77;;;18.00;70.90;;;;;;5033099;28;20497;-72
2023/03/25 09:29:50;;;;;;;4.72;1.80;;;18.00;70.90;;;;;;5032876;28;20029;-72
2023/03/25 09:32:17;;;;;;;6.20;1.60;;;18.00;70.90;;;;;;5065221;28;20045;-72
2023/03/25 09:34:43;;;;;;;6.05;1.77;;;17.90;70.80;;;;;;5048118;28;20489;-72
2023/03/25 09:37:09;;;;;;;4.13;1.60;;;17.90;70.80;;;;;;5064525;28;20038;-72
2023/03/25 09:39:35;;;;;;;4.32;1.63;;;17.90;70.80;;;;;;5065034;28;20014;-72
2023/03/25 09:42:45;;;;;;;3.90;1.52;;;17.90;70.80;;;;;;5064676;28;20063;-72
2023/03/25 09:45:16;;;;;;;7.82;1.88;;;17.90;70.80;;;;;;5030650;28;20116;-72
2023/03/25 09:48:05;;;;;;;5.05;1.60;;;17.90;70.80;;;;;;5032222;28;20048;-72
2023/03/25 09:50:31;;;;;;;5.63;1.85;;;17.90;70.80;;;;;;5036472;28;20029;-72
2023/03/25 09:53:09;;;;;;;4.35;1.67;;;17.90;70.80;;;;;;5016921;28;20044;-72
2023/03/25 09:55:39;;;;;;;3.72;1.55;;;17.90;70.70;;;;;;5034318;28;20061;-72
2023/03/25 09:58:26;;;;;;;6.35;1.65;;;17.90;70.80;;;;;;5017560;28;20037;-72
2023/03/25 10:01:36;;;;;;;5.70;1.70;;;17.80;70.70;;;;;;5018636;28;20055;-72
2023/03/25 10:04:23;;;;;;;3.10;1.48;;;17.80;70.70;;;;;;4971243;28;20026;-72
2023/03/25 10:06:51;;;;;;;3.67;1.27;;;17.80;70.70;;;;;;4971675;28;20045;-72
2023/03/25 10:09:36;;;;;;;6.13;1.60;;;17.80;70.70;;;;;;4971551;28;20486;-72
2023/03/25 10:12:36;;;;;;;5.10;1.92;;;17.80;70.70;;;;;;4956941;28;20038;-72
2023/03/25 10:15:23;;;;;;;4.90;1.50;;;17.80;70.60;;;;;;4941783;29;20042;-72
2023/03/25 10:18:03;;;;;;;5.20;1.52;;;17.70;70.50;;;;;;4951869;29;20066;-72
2023/03/25 10:20:30;;;;;;;5.45;1.60;;;17.70;70.50;;;;;;4971542;28;20030;-72
2023/03/25 10:23:13;;;;;;;5.35;1.60;;;17.70;70.60;;;;;;4971410;28;20439;-72
2023/03/25 10:25:40;;;;;;;3.33;1.33;;;17.70;70.60;;;;;;4971508;28;20026;-72
2023/03/25 10:28:07;;;;;;;2.42;1.20;;;17.70;70.50;;;;;;4954875;28;20035;-72
2023/03/25 10:30:36;;;;;;;5.28;1.73;;;17.70;70.50;;;;;;4971259;28;20093;-72
2023/03/25 10:33:03;;;;;;;5.63;1.60;;;17.70;70.50;;;;;;4986826;28;20039;-72
2023/03/25 10:35:37;;;;;;;2.60;1.30;;;17.70;70.50;;;;;;4971179;28;20023;-72
2023/03/25 10:38:06;;;;;;;4.95;1.70;;;17.70;70.50;;;;;;4987292;28;20561;-72
2023/03/25 10:40:39;;;;;;;6.15;1.63;;;17.60;70.50;;;;;;5035661;28;20044;-72
2023/03/25 10:43:26;;;;;;;4.32;1.50;;;17.70;70.50;;;;;;5047260;28;20024;-72
2023/03/25 10:46:19;;;;;;;4.07;1.63;;;17.70;70.50;;;;;;5030914;28;20485;-72
2023/03/25 10:48:45;;;;;;;5.32;1.42;;;17.60;70.50;;;;;;5040821;28;20036;-72
2023/03/25 10:51:13;;;;;;;4.93;1.65;;;17.70;71.50;;;;;;5050333;28;20396;-72
2023/03/25 10:53:40;;;;;;;5.88;1.75;;;17.60;70.50;;;;;;5050618;28;20124;-72
2023/03/25 10:56:06;;;;;;;4.55;1.80;;;17.60;70.40;;;;;;5050603;28;20388;-72
2023/03/25 10:58:32;;;;;;;3.65;1.55;;;17.60;70.40;;;;;;5051977;28;20078;-72
2023/03/25 11:01:00;;;;;;;5.18;1.60;;;17.60;71.50;;;;;;5050357;28;20017;-72
2023/03/25 11:03:31;;;;;;;4.57;1.67;;;17.60;70.40;;;;;;5033964;28;20495;-72
2023/03/25 11:05:56;;;;;;;5.10;1.50;;;17.60;70.40;;;;;;5050561;28;20029;-72
2023/03/25 11:08:23;;;;;;;5.40;1.95;;;17.60;70.40;;;;;;5051891;28;20569;-72
2023/03/25 11:10:56;;;;;;;4.22;1.30;;;17.60;70.40;;;;;;5054571;28;20067;-72
2023/03/25 11:13:26;;;;;;;5.13;1.60;;;17.60;70.30;;;;;;5051091;28;20033;-72
2023/03/25 11:16:00;;;;;;;2.95;1.40;;;17.60;70.30;;;;;;5050525;28;20029;-72
2023/03/25 11:18:27;;;;;;;3.08;1.48;;;17.60;70.30;;;;;;5050507;28;20072;-72
2023/03/25 11:21:00;;;;;;;5.00;1.60;;;17.50;70.30;;;;;;5067603;28;20083;-72
2023/03/25 11:23:35;;;;;;;4.50;1.60;;;17.50;70.30;;;;;;5050600;28;20021;-72
2023/03/25 11:26:25;;;;;;;5.55;1.70;;;17.60;70.30;;;;;;5067200;28;20112;-72
2023/03/25 11:29:01;;;;;;;6.60;1.40;;;17.60;70.40;;;;;;5051195;28;20037;-72
2023/03/25 11:31:29;;;;;;;5.35;1.58;;;17.50;70.30;;;;;;5049482;28;20029;-72
2023/03/25 11:34:19;;;;;;;3.95;1.60;;;17.50;70.40;;;;;;5050439;28;20048;-72
2023/03/25 11:36:45;;;;;;;4.72;1.73;;;17.50;70.30;;;;;;5067266;28;20076;-72
2023/03/25 11:39:18;;;;;;;4.55;1.38;;;17.50;70.40;;;;;;5034942;28;20033;-72
2023/03/25 11:41:43;;;;;;;;;;;17.50;70.40;;;;;;5067613;28;20091;-72
2023/03/25 11:44:22;;;;;;;2.95;1.48;;;17.50;70.30;;;;;;5033556;28;19909;-72
2023/03/25 11:46:49;;;;;;;3.53;1.40;;;17.50;70.40;;;;;;5049518;28;20026;-72
2023/03/25 11:49:17;;;;;;;3.47;1.45;;;17.40;70.30;;;;;;5081099;28;20428;-72
2023/03/25 11:51:43;;;;;;;6.28;1.75;;;17.50;70.50;;;;;;5053429;28;20080;-72
2023/03/25 11:54:11;;;;;;;4.65;1.60;;;17.40;70.50;;;;;;5070035;28;20071;-72
2023/03/25 11:56:38;;;;;;;4.40;1.60;;;17.40;70.50;;;;;;5069947;28;20029;-72
2023/03/25 11:59:07;;;;;;;4.68;1.38;;;17.50;70.50;;;;;;5069736;28;20020;-72
2023/03/25 12:01:39;;;;;;;5.43;1.85;;;17.40;70.50;;;;;;5086838;28;20040;-72
2023/03/25 12:04:19;;;;;;;3.97;1.48;;;17.40;70.50;;;;;;5054546;28;20094;-72
2023/03/25 12:07:08;;;;;;;3.65;1.30;;;17.40;70.50;;;;;;5086590;28;20465;-72
2023/03/25 12:09:34;;;;;;;4.22;1.50;;;17.40;70.50;;;;;;5082562;28;20024;-72
2023/03/25 12:12:09;;;;;;;4.70;1.55;;;17.40;70.50;;;;;;5069978;28;20021;-72
2023/03/25 12:14:56;;;;;;;2.95;1.15;;;17.40;70.50;;;;;;5068984;28;20029;-72
2023/03/25 12:17:45;;;;;;;3.80;1.40;;;17.40;70.40;;;;;;5054047;28;20021;-72
2023/03/25 12:20:32;;;;;;;5.55;1.45;;;17.40;70.40;;;;;;5052038;28;20401;-72
2023/03/25 12:23:03;;;;;;;3.20;1.73;;;17.40;70.50;;;;;;5054439;28;20504;-72
2023/03/25 12:25:37;;;;;;;3.63;1.33;;;17.40;70.50;;;;;;5054257;28;20021;-72
2023/03/25 12:28:32;;;;;;;2.58;1.00;;;17.40;70.50;;;;;;5052575;28;20028;-72
2023/03/25 12:31:35;;;;;;;5.03;1.75;;;17.40;70.50;;;;;;5052934;28;20025;-72
2023/03/25 12:34:13;;;;;;;2.83;1.20;;;17.40;70.50;;;;;;5052810;28;20037;-72
2023/03/25 12:36:54;;;;;;;3.17;1.30;;;17.40;70.60;;;;;;5053862;28;20032;-72
2023/03/25 12:39:43;;;;;;;2.33;1.08;;;17.40;70.50;;;;;;5053757;28;20077;-72
2023/03/25 12:42:47;;;;;;;3.45;1.35;;;17.30;70.50;;;;;;5052416;28;20113;-72
2023/03/25 12:45:38;;;;;;;3.47;1.45;;;17.40;70.50;;;;;;5052488;28;20036;-72
2023/03/25 12:48:16;;;;;;;3.15;1.27;;;17.30;70.40;;;;;;5052630;28;20029;-72
2023/03/25 12:50:59;;;;;;;4.10;1.33;;;17.30;70.40;;;;;;5086056;28;20025;-72
2023/03/25 12:53:53;;;;;;;2.95;1.20;;;17.40;70.60;;;;;;5052291;28;20045;-72
2023/03/25 12:56:40;;;;;;;4.13;1.40;;;17.30;70.60;;;;;;5085748;28;20082;-72
2023/03/25 12:59:43;;;;;;;2.80;1.20;;;17.30;70.60;;;;;;5085000;28;20021;-72
2023/03/25 13:02:12;;;;;;;2.28;1.08;;;17.30;70.50;;;;;;5053549;28;20124;-72
2023/03/25 13:04:50;;;;;;;2.63;1.25;;;17.30;70.50;;;;;;5053404;28;20459;-72
2023/03/25 13:07:19;;;;;;;4.35;1.60;;;17.20;70.50;;;;;;5053174;28;20063;-72